Terminal Aerodrome Forecast
Issued by NWS

Home | Current Version | Previous Version | Text Only | Print | Product List | Glossary On
Versions: 1 2 3 4 5 6 7 8 9 10 11 12 13 14 15 16 17 18 19 20 21 22 23 24 25 26 27
000
FTUS41 KOKX 210200 AAA
TAFTEB
TAF AMD
KTEB 210231Z 2103/2124 28012G19KT P6SM SKC
     FM211400 31016G26KT P6SM SCT050
     FM212300 29008KT P6SM SKC=

USA.gov is the U.S. government's official web portal to all federal, state and local government web resources and services.